Terminal Aerodrome Forecast
Issued by NWS

Home | Current Version | Previous Version | Text Only | Print | Product List | Glossary On
Versions: 1 2 3 4 5 6 7 8 9 10 11 12 13 14 15 16 17 18 19 20 21 22 23 24 25 26 27
000
FTUS46 KSEW 231200 AAB
TAFSEA
TAF AMD
KSEA 231223Z 2312/2418 VRB03KT P6SM -TSRA BKN060CB BKN200
      TEMPO 2312/2314 4SM -TSRA OVC040CB
     FM231400 VRB03KT P6SM -SHRA SCT040 BKN070 OVC120
     FM231900 21010KT P6SM -SHRA BKN020 OVC030
     FM240300 21014KT P6SM -SHRA SCT015 BKN025 OVC040=

USA.gov is the U.S. government's official web portal to all federal, state and local government web resources and services.